createdAt,value
2023-05-20T00:02:39.656Z,98571.16
2023-05-20T00:06:01.558Z,98546.53
2023-05-20T00:09:25.515Z,98559.69
2023-05-20T00:12:48.573Z,98554.84
2023-05-20T00:16:10.555Z,98555.31
2023-05-20T00:19:32.545Z,98556.09
2023-05-20T00:22:54.576Z,98558.75
2023-05-20T00:26:16.563Z,98550.53
2023-05-20T00:29:37.205Z,98545.31
2023-05-20T00:32:54.597Z,98519.00
2023-05-20T00:36:16.549Z,98500.56
2023-05-20T00:39:39.576Z,98484.97
2023-05-20T00:43:01.543Z,98478.84
2023-05-20T00:46:25.629Z,98495.34
2023-05-20T00:49:50.337Z,98497.88
2023-05-20T00:53:13.588Z,98512.06
2023-05-20T00:56:35.565Z,98537.88
2023-05-20T00:59:58.576Z,98519.69
2023-05-20T01:03:20.783Z,98509.00
2023-05-20T01:06:45.576Z,98503.66
2023-05-20T01:10:07.576Z,98507.75
2023-05-20T01:13:31.575Z,98519.81
2023-05-20T01:16:53.594Z,98489.97
2023-05-20T01:20:17.552Z,98479.09
2023-05-20T01:23:39.600Z,98479.88
2023-05-20T01:27:02.602Z,98483.59
2023-05-20T01:30:25.600Z,98463.78
2023-05-20T01:33:49.592Z,98444.63
2023-05-20T01:37:13.606Z,98443.44
2023-05-20T01:40:36.566Z,98428.91
2023-05-20T01:44:00.598Z,98436.69
2023-05-20T01:47:23.684Z,98460.91
2023-05-20T01:50:47.702Z,98442.84
2023-05-20T01:54:09.582Z,98431.00
2023-05-20T01:57:36.601Z,98441.75
2023-05-20T02:00:59.617Z,98428.75
2023-05-20T02:04:21.601Z,98426.69
2023-05-20T02:07:43.567Z,98432.59
2023-05-20T02:11:05.606Z,98422.53
2023-05-20T02:14:28.611Z,98418.84
2023-05-20T02:17:57.605Z,98427.53
2023-05-20T02:21:19.687Z,98438.41
2023-05-20T02:24:43.698Z,98447.09
2023-05-20T02:28:05.753Z,98415.91
2023-05-20T02:31:22.966Z,98406.81
2023-05-20T02:34:40.635Z,98397.53
2023-05-20T02:38:03.563Z,98395.03
2023-05-20T02:41:25.724Z,98398.47
2023-05-20T02:44:49.601Z,98400.81
2023-05-20T02:48:12.728Z,98405.19
2023-05-20T02:51:35.637Z,98407.91
2023-05-20T02:54:57.632Z,98410.66
2023-05-20T02:58:21.701Z,98414.59
2023-05-20T03:01:44.772Z,98441.91
2023-05-20T03:05:06.722Z,98435.31
2023-05-20T03:08:28.696Z,98426.94
2023-05-20T03:11:50.722Z,98433.91
2023-05-20T03:15:13.641Z,98440.25
2023-05-20T03:18:36.674Z,98435.09
2023-05-20T03:21:59.629Z,98422.69
2023-05-20T03:25:21.727Z,98422.25
2023-05-20T03:28:45.655Z,98425.88
2023-05-20T03:32:08.746Z,98440.47
2023-05-20T03:35:34.843Z,98422.69
2023-05-20T03:38:57.654Z,98431.34
2023-05-20T03:42:22.619Z,98426.22
2023-05-20T03:45:44.650Z,98422.25
2023-05-20T03:49:07.632Z,98414.19
2023-05-20T03:52:29.669Z,98427.53
2023-05-20T03:55:52.646Z,98433.78
2023-05-20T03:59:14.650Z,98441.59
2023-05-20T04:02:37.787Z,98431.66
2023-05-20T04:06:02.632Z,98438.53
2023-05-20T04:09:25.644Z,98428.75
2023-05-20T04:12:47.642Z,98453.97
2023-05-20T04:16:13.705Z,98442.56
2023-05-20T04:19:36.674Z,98460.41
2023-05-20T04:23:00.635Z,98452.56
2023-05-20T04:26:24.661Z,98472.66
2023-05-20T04:29:49.650Z,98451.19
2023-05-20T04:33:12.660Z,98475.16
2023-05-20T04:36:38.648Z,98442.63
2023-05-20T04:40:01.647Z,98450.06
2023-05-20T04:43:25.682Z,98457.97
2023-05-20T04:46:49.666Z,98489.44
2023-05-20T04:50:12.666Z,98524.75
2023-05-20T04:53:35.659Z,98523.00
2023-05-20T04:56:58.693Z,98512.31
2023-05-20T05:00:21.625Z,98493.81
2023-05-20T05:03:43.690Z,98508.69
2023-05-20T05:07:06.655Z,98476.81
2023-05-20T05:10:29.664Z,98514.59
2023-05-20T05:13:51.638Z,98516.84
2023-05-20T05:17:15.693Z,98512.72
2023-05-20T05:20:39.686Z,98520.03
2023-05-20T05:24:02.904Z,98510.44
2023-05-20T05:27:25.654Z,98512.16
2023-05-20T05:30:49.668Z,98520.13
2023-05-20T05:34:11.658Z,98519.66
2023-05-20T05:37:34.652Z,98533.19
2023-05-20T05:40:58.685Z,98543.09
2023-05-20T05:44:23.673Z,98545.22
2023-05-20T05:47:46.709Z,98560.53
2023-05-20T05:51:09.662Z,98560.06
2023-05-20T05:54:31.713Z,98564.38
2023-05-20T05:57:55.660Z,98572.19
2023-05-20T06:01:18.778Z,98580.63
2023-05-20T06:04:42.717Z,98578.53
2023-05-20T06:08:06.719Z,98593.88
2023-05-20T06:11:30.652Z,98591.78
2023-05-20T06:14:53.709Z,98596.38
2023-05-20T06:18:16.664Z,98624.63
2023-05-20T06:21:41.786Z,98637.38
2023-05-20T06:25:08.707Z,98662.88
2023-05-20T06:28:30.670Z,98656.19
2023-05-20T06:31:53.711Z,98647.88
2023-05-20T06:35:09.902Z,98654.91
2023-05-20T06:38:26.692Z,98645.16
2023-05-20T06:41:49.700Z,98634.50
2023-05-20T06:45:22.720Z,98650.59
2023-05-20T06:48:53.708Z,98663.53
2023-05-20T06:52:17.993Z,98684.56
2023-05-20T06:55:41.691Z,98695.09
2023-05-20T06:59:05.755Z,98709.00
2023-05-20T07:02:29.711Z,98725.84
2023-05-20T07:05:52.719Z,98732.84
2023-05-20T07:09:14.706Z,98746.25
2023-05-20T07:12:37.087Z,98740.69
2023-05-20T07:16:03.704Z,98746.94
2023-05-20T07:19:28.828Z,98752.50
2023-05-20T07:22:52.727Z,98773.84
2023-05-20T07:26:44.700Z,98795.09
2023-05-20T07:30:01.741Z,98799.50
2023-05-20T07:33:25.786Z,98821.00
2023-05-20T07:36:42.365Z,98824.81
2023-05-20T07:39:59.748Z,98823.22
2023-05-20T07:43:23.685Z,98836.78
2023-05-20T07:46:46.728Z,98835.50
2023-05-20T07:50:10.726Z,98850.44
2023-05-20T07:53:32.726Z,98867.63
2023-05-20T07:56:56.755Z,98856.91
2023-05-20T08:00:21.724Z,98851.78
2023-05-20T08:03:49.900Z,98865.69
2023-05-20T08:07:13.731Z,98858.66
2023-05-20T08:10:41.783Z,98900.59
2023-05-20T08:14:03.720Z,98889.00
2023-05-20T08:17:30.806Z,98886.03
2023-05-20T08:20:54.721Z,98878.72
2023-05-20T08:24:17.826Z,98864.56
2023-05-20T08:27:41.753Z,98870.69
2023-05-20T08:31:05.788Z,98871.59
2023-05-20T08:34:30.749Z,98876.69
2023-05-20T08:37:52.728Z,98882.09
2023-05-20T08:41:15.724Z,98894.84
2023-05-20T08:44:38.786Z,98909.03
2023-05-20T08:48:01.792Z,98915.22
2023-05-20T08:51:24.781Z,98930.88
2023-05-20T08:55:12.738Z,98937.28
2023-05-20T08:58:35.798Z,98948.50
2023-05-20T09:01:57.779Z,98959.69
2023-05-20T09:05:19.885Z,98955.38
2023-05-20T09:08:42.764Z,98946.13
2023-05-20T09:12:04.776Z,98950.66
2023-05-20T09:15:28.839Z,98950.66
2023-05-20T09:18:54.853Z,98946.00
2023-05-20T09:22:16.772Z,98972.44
2023-05-20T09:25:38.787Z,98993.56
2023-05-20T09:29:01.766Z,99026.59
2023-05-20T09:32:27.793Z,99031.63
2023-05-20T09:35:45.811Z,99040.81
2023-05-20T09:39:04.699Z,99027.09
2023-05-20T09:42:23.772Z,99047.16
2023-05-20T09:45:46.779Z,99043.44
2023-05-20T09:49:08.809Z,99033.34
2023-05-20T09:52:31.758Z,99052.19
2023-05-20T09:55:53.828Z,99084.22
2023-05-20T09:59:15.749Z,99093.97
2023-05-20T10:02:37.911Z,99080.97
2023-05-20T10:06:20.765Z,99077.16
2023-05-20T10:09:45.826Z,99087.44
2023-05-20T10:13:19.764Z,99101.00
2023-05-20T10:17:07.802Z,99132.34
2023-05-20T10:20:30.788Z,99137.28
2023-05-20T10:23:53.774Z,99122.19
2023-05-20T10:27:20.813Z,99130.88
2023-05-20T10:30:44.527Z,99133.22
2023-05-20T10:34:08.924Z,99170.34
2023-05-20T10:37:38.788Z,99146.69
2023-05-20T10:41:00.844Z,99159.94
2023-05-20T10:44:23.755Z,99162.19
2023-05-20T10:47:46.931Z,99171.25
2023-05-20T10:51:13.898Z,99167.31
2023-05-20T10:54:37.798Z,99162.84
2023-05-20T10:58:00.819Z,99164.16
2023-05-20T11:01:22.812Z,99158.72
2023-05-20T11:04:40.836Z,99183.63
2023-05-20T11:08:04.434Z,99200.81
2023-05-20T11:11:30.800Z,99201.50
2023-05-20T11:14:52.816Z,99184.44
2023-05-20T11:18:18.653Z,99201.63
2023-05-20T11:21:41.788Z,99209.88
2023-05-20T11:25:04.829Z,99220.22
2023-05-20T11:28:29.788Z,99211.97
2023-05-20T11:31:52.910Z,99224.34
2023-05-20T11:35:14.850Z,99219.59
2023-05-20T11:38:37.799Z,99245.94
2023-05-20T11:41:59.836Z,99244.91
2023-05-20T11:45:27.852Z,99270.63
2023-05-20T11:48:52.864Z,99268.13
2023-05-20T11:52:14.843Z,99271.06
2023-05-20T11:55:37.806Z,99265.22
2023-05-20T11:58:59.949Z,99265.66
2023-05-20T12:02:21.847Z,99278.19
2023-05-20T12:05:43.856Z,99277.47
2023-05-20T12:09:06.873Z,99297.56
2023-05-20T12:12:28.834Z,99287.53
2023-05-20T12:15:52.978Z,99285.91
2023-05-20T12:19:16.939Z,99289.66
2023-05-20T12:22:48.818Z,99299.38
2023-05-20T12:26:10.845Z,99295.97
2023-05-20T12:29:33.819Z,99310.63
2023-05-20T12:32:55.912Z,99303.50
2023-05-20T12:36:18.799Z,99308.41
2023-05-20T12:39:40.853Z,99306.19
2023-05-20T12:43:03.840Z,99326.66
2023-05-20T12:46:29.867Z,99347.34
2023-05-20T12:49:52.831Z,99355.66
2023-05-20T12:53:15.831Z,99354.97
2023-05-20T12:56:38.847Z,99368.63
2023-05-20T13:00:01.826Z,99369.81
2023-05-20T13:03:24.920Z,99392.72
2023-05-20T13:06:48.842Z,99396.44
2023-05-20T13:10:11.899Z,99396.88
2023-05-20T13:13:33.841Z,99433.31
2023-05-20T13:16:56.896Z,99430.84
2023-05-20T13:20:20.063Z,99425.16
2023-05-20T13:23:43.988Z,99434.16
2023-05-20T13:27:06.852Z,99437.44
2023-05-20T13:30:28.871Z,99450.75
2023-05-20T13:33:51.870Z,99469.09
2023-05-20T13:37:14.910Z,99481.91
2023-05-20T13:40:37.833Z,99474.97
2023-05-20T13:44:00.916Z,99490.09
2023-05-20T13:47:23.882Z,99476.06
2023-05-20T13:50:45.901Z,99477.44
2023-05-20T13:54:08.865Z,99472.91
2023-05-20T13:57:31.870Z,99477.44
2023-05-20T14:00:53.898Z,99471.38
2023-05-20T14:04:15.850Z,99472.69
2023-05-20T14:07:38.893Z,99481.84
2023-05-20T14:11:03.872Z,99488.94
2023-05-20T14:14:27.883Z,99499.41
2023-05-20T14:17:49.895Z,99491.13
2023-05-20T14:21:11.909Z,99496.09
2023-05-20T14:24:34.878Z,99479.41
2023-05-20T14:27:57.877Z,99483.16
2023-05-20T14:31:19.894Z,99489.72
2023-05-20T14:34:41.913Z,99480.91
2023-05-20T14:38:04.863Z,99485.34
2023-05-20T14:41:27.924Z,99492.44
2023-05-20T14:44:45.739Z,99500.19
2023-05-20T14:48:04.051Z,99508.47
2023-05-20T14:51:26.886Z,99514.91
2023-05-20T14:54:49.901Z,99517.69
2023-05-20T14:58:12.888Z,99545.03
2023-05-20T15:01:36.093Z,99538.09
2023-05-20T15:04:57.855Z,99556.09
2023-05-20T15:08:20.012Z,99544.25
2023-05-20T15:11:42.871Z,99537.66
2023-05-20T15:15:05.021Z,99554.19
2023-05-20T15:18:27.921Z,99561.59
2023-05-20T15:21:50.939Z,99550.41
2023-05-20T15:25:13.924Z,99552.94
2023-05-20T15:28:35.911Z,99561.44
2023-05-20T15:31:59.887Z,99568.25
2023-05-20T15:35:22.925Z,99566.91
2023-05-20T15:38:45.884Z,99580.41
2023-05-20T15:42:09.937Z,99581.56
2023-05-20T15:45:26.674Z,99605.72
2023-05-20T15:48:46.067Z,99612.72
2023-05-20T15:52:08.917Z,99622.53
2023-05-20T15:55:33.950Z,99629.13
2023-05-20T15:58:56.904Z,99628.47
2023-05-20T16:02:20.016Z,99631.72
2023-05-20T16:05:42.969Z,99645.53
2023-05-20T16:09:05.947Z,99653.53
2023-05-20T16:12:28.929Z,99651.47
2023-05-20T16:15:51.130Z,99671.09
2023-05-20T16:19:13.991Z,99663.84
2023-05-20T16:22:36.941Z,99674.81
2023-05-20T16:25:58.943Z,99673.91
2023-05-20T16:29:21.940Z,99685.03
2023-05-20T16:32:43.990Z,99690.91
2023-05-20T16:36:06.933Z,99694.66
2023-05-20T16:39:29.907Z,99697.75
2023-05-20T16:42:52.958Z,99690.75
2023-05-20T16:46:09.644Z,99713.03
2023-05-20T16:49:26.948Z,99721.25
2023-05-20T16:52:49.944Z,99725.63
2023-05-20T16:56:12.959Z,99733.13
2023-05-20T16:59:37.926Z,99739.22
2023-05-20T17:03:01.017Z,99749.47
2023-05-20T17:06:22.970Z,99758.25
2023-05-20T17:09:44.932Z,99762.06
2023-05-20T17:13:07.003Z,99769.34
2023-05-20T17:16:29.032Z,99774.56
2023-05-20T17:19:50.956Z,99781.94
2023-05-20T17:23:12.925Z,99790.19
2023-05-20T17:26:34.953Z,99795.53
2023-05-20T17:29:57.938Z,99804.47
2023-05-20T17:33:20.088Z,99808.34
2023-05-20T17:36:42.943Z,99814.59
2023-05-20T17:40:06.040Z,99829.72
2023-05-20T17:43:27.968Z,99841.28
2023-05-20T17:46:50.974Z,99847.09
2023-05-20T17:50:13.940Z,99854.84
2023-05-20T17:53:37.077Z,99858.13
2023-05-20T17:56:58.950Z,99855.22
2023-05-20T18:00:24.036Z,99855.72
2023-05-20T18:03:48.045Z,99863.84
2023-05-20T18:07:11.981Z,99872.84
2023-05-20T18:10:34.179Z,99877.44
2023-05-20T18:13:57.971Z,99874.75
2023-05-20T18:17:20.042Z,99892.09
2023-05-20T18:20:42.950Z,99885.72
2023-05-20T18:24:04.981Z,99898.63
2023-05-20T18:27:29.026Z,99894.69
2023-05-20T18:30:51.987Z,99893.06
2023-05-20T18:34:14.984Z,99906.59
2023-05-20T18:37:38.021Z,99910.91
2023-05-20T18:41:00.980Z,99919.53
2023-05-20T18:44:23.000Z,99921.72
2023-05-20T18:47:39.646Z,99939.78
2023-05-20T18:50:56.984Z,99949.25
2023-05-20T18:54:20.009Z,99956.84
2023-05-20T18:57:42.996Z,99962.50
2023-05-20T19:01:05.990Z,99973.38
2023-05-20T19:04:27.984Z,99979.56
2023-05-20T19:07:51.012Z,99979.00
2023-05-20T19:11:13.959Z,99991.00
2023-05-20T19:14:37.030Z,99996.38
2023-05-20T19:18:00.015Z,100001.78
2023-05-20T19:21:22.042Z,100003.34
2023-05-20T19:24:45.014Z,100020.13
2023-05-20T19:28:07.023Z,100025.81
2023-05-20T19:31:30.023Z,100031.03
2023-05-20T19:34:53.016Z,100040.75
2023-05-20T19:38:16.117Z,100041.78
2023-05-20T19:41:38.027Z,100032.91
2023-05-20T19:45:00.993Z,100041.06
2023-05-20T19:48:18.528Z,100045.34
2023-05-20T19:51:37.008Z,100042.41
2023-05-20T19:55:00.002Z,100050.25
2023-05-20T19:58:22.040Z,100050.47
2023-05-20T20:01:45.117Z,100060.34
2023-05-20T20:05:09.077Z,100058.06
2023-05-20T20:08:31.025Z,100049.03
2023-05-20T20:11:54.012Z,100069.56
2023-05-20T20:15:17.095Z,100096.56
2023-05-20T20:18:39.019Z,100096.47
2023-05-20T20:22:01.053Z,100104.06
2023-05-20T20:25:24.026Z,100108.41
2023-05-20T20:28:46.050Z,100108.69
2023-05-20T20:32:10.066Z,100094.34
2023-05-20T20:35:32.020Z,100095.97
2023-05-20T20:38:54.990Z,100099.47
2023-05-20T20:42:12.069Z,100115.34
2023-05-20T20:45:36.233Z,100107.75
2023-05-20T20:48:58.031Z,100108.59
2023-05-20T20:52:21.026Z,100099.09
2023-05-20T20:55:44.068Z,100115.31
2023-05-20T20:59:06.013Z,100117.22
2023-05-20T21:02:29.103Z,100134.59
2023-05-20T21:05:52.049Z,100163.91
2023-05-20T21:09:15.064Z,100159.72
2023-05-20T21:12:37.051Z,100162.63
2023-05-20T21:15:59.050Z,100162.94
2023-05-20T21:19:21.102Z,100173.38
2023-05-20T21:22:44.088Z,100161.53
2023-05-20T21:26:06.069Z,100162.41
2023-05-20T21:29:28.062Z,100164.25
2023-05-20T21:32:51.104Z,100158.97
2023-05-20T21:36:13.067Z,100161.44
2023-05-20T21:39:35.032Z,100156.91
2023-05-20T21:43:00.062Z,100167.56
2023-05-20T21:46:22.097Z,100164.94
2023-05-20T21:49:38.606Z,100159.25
2023-05-20T21:52:56.053Z,100173.66
2023-05-20T21:56:20.049Z,100181.59
2023-05-20T21:59:42.126Z,100179.75
2023-05-20T22:03:05.122Z,100175.56
2023-05-20T22:06:29.069Z,100194.13
2023-05-20T22:09:51.051Z,100221.69
2023-05-20T22:13:13.068Z,100226.47
2023-05-20T22:16:37.117Z,100236.75
2023-05-20T22:20:01.082Z,100226.72
2023-05-20T22:23:24.096Z,100224.19
2023-05-20T22:26:47.102Z,100242.50
2023-05-20T22:30:09.075Z,100219.91
2023-05-20T22:33:32.076Z,100226.97
2023-05-20T22:36:54.074Z,100232.50
2023-05-20T22:40:17.095Z,100220.41
2023-05-20T22:43:40.114Z,100243.00
2023-05-20T22:47:02.228Z,100234.72
2023-05-20T22:50:17.830Z,100246.00
2023-05-20T22:53:35.098Z,100232.22
2023-05-20T22:57:02.081Z,100222.00
2023-05-20T23:00:24.108Z,100216.47
2023-05-20T23:03:46.093Z,100214.88
2023-05-20T23:07:02.123Z,100241.84
2023-05-20T23:10:24.103Z,100240.16
2023-05-20T23:13:46.082Z,100250.78
2023-05-20T23:17:08.214Z,100240.09
2023-05-20T23:20:30.095Z,100246.09
2023-05-20T23:23:52.117Z,100247.81
2023-05-20T23:27:15.124Z,100233.66
2023-05-20T23:30:37.111Z,100232.97
2023-05-20T23:34:00.246Z,100235.69
2023-05-20T23:37:23.075Z,100225.75
2023-05-20T23:40:45.108Z,100228.97
2023-05-20T23:44:07.108Z,100233.22
2023-05-20T23:47:29.179Z,100229.22
2023-05-20T23:50:44.820Z,100231.09
2023-05-20T23:54:03.121Z,100224.41
2023-05-20T23:57:25.125Z,100221.59
